createdAt,value
2023-04-16T00:00:36.327Z,11.26
2023-04-16T00:03:04.035Z,11.20
2023-04-16T00:05:31.731Z,11.11
2023-04-16T00:07:59.188Z,11.05
2023-04-16T00:10:26.609Z,10.97
2023-04-16T00:12:54.027Z,10.96
2023-04-16T00:15:21.428Z,10.75
2023-04-16T00:17:48.875Z,10.77
2023-04-16T00:20:16.388Z,10.83
2023-04-16T00:22:43.703Z,10.85
2023-04-16T00:25:11.127Z,10.83
2023-04-16T00:27:38.505Z,10.61
2023-04-16T00:30:07.352Z,10.63
2023-04-16T00:32:34.729Z,10.73
2023-04-16T00:35:02.130Z,10.68
2023-04-16T00:37:30.507Z,10.46
2023-04-16T00:39:57.891Z,10.45
2023-04-16T00:42:25.650Z,10.36
2023-04-16T00:44:53.005Z,10.17
2023-04-16T00:47:21.781Z,10.20
2023-04-16T00:49:49.399Z,10.42
2023-04-16T00:52:16.728Z,10.54
2023-04-16T00:54:44.236Z,10.38
2023-04-16T00:57:14.606Z,10.44
2023-04-16T00:59:43.738Z,10.39
2023-04-16T01:02:11.340Z,10.40
2023-04-16T01:04:38.985Z,10.46
2023-04-16T01:07:06.532Z,10.31
2023-04-16T01:09:33.904Z,10.10
2023-04-16T01:12:03.891Z,10.22
2023-04-16T01:14:36.209Z,10.28
2023-04-16T01:17:04.306Z,10.21
2023-04-16T01:19:31.749Z,10.07
2023-04-16T01:21:59.290Z,9.98
2023-04-16T01:24:26.654Z,9.95
2023-04-16T01:26:54.095Z,9.85
2023-04-16T01:29:21.496Z,9.99
2023-04-16T01:31:50.849Z,10.00
2023-04-16T01:34:31.794Z,10.02
2023-04-16T01:36:59.180Z,9.90
2023-04-16T01:39:27.333Z,10.04
2023-04-16T01:41:54.738Z,9.87
2023-04-16T01:44:23.206Z,9.83
2023-04-16T01:46:50.718Z,9.59
2023-04-16T01:49:18.333Z,9.71
2023-04-16T01:51:45.807Z,9.68
2023-04-16T01:54:13.291Z,9.88
2023-04-16T01:56:40.677Z,10.01
2023-04-16T01:59:08.432Z,9.80
2023-04-16T02:01:40.488Z,9.57
2023-04-16T02:04:08.597Z,9.73
2023-04-16T02:06:36.188Z,9.67
2023-04-16T02:09:03.903Z,9.65
2023-04-16T02:11:31.582Z,9.67
2023-04-16T02:13:59.163Z,9.62
2023-04-16T02:16:26.693Z,9.62
2023-04-16T02:19:00.037Z,9.58
2023-04-16T02:21:31.904Z,9.39
2023-04-16T02:23:59.308Z,9.51
2023-04-16T02:26:30.316Z,9.53
2023-04-16T02:29:03.527Z,9.55
2023-04-16T02:31:38.758Z,9.24
2023-04-16T02:34:06.977Z,9.32
2023-04-16T02:36:34.465Z,9.38
2023-04-16T02:39:02.122Z,9.46
2023-04-16T02:41:29.567Z,9.50
2023-04-16T02:43:56.945Z,9.15
2023-04-16T02:46:24.518Z,8.99
2023-04-16T02:48:51.990Z,9.03
2023-04-16T02:51:19.373Z,9.18
2023-04-16T02:53:46.869Z,9.20
2023-04-16T02:56:14.885Z,8.92
2023-04-16T02:58:42.313Z,9.11
2023-04-16T03:01:11.062Z,9.05
2023-04-16T03:03:38.645Z,9.12
2023-04-16T03:06:06.118Z,9.16
2023-04-16T03:08:33.466Z,8.91
2023-04-16T03:11:00.870Z,8.98
2023-04-16T03:13:28.224Z,9.00
2023-04-16T03:15:55.830Z,9.15
2023-04-16T03:18:23.388Z,8.82
2023-04-16T03:20:53.974Z,8.65
2023-04-16T03:23:21.385Z,8.74
2023-04-16T03:25:48.768Z,8.61
2023-04-16T03:28:18.970Z,8.78
2023-04-16T03:30:53.660Z,8.84
2023-04-16T03:33:21.705Z,8.94
2023-04-16T03:35:56.115Z,8.91
2023-04-16T03:38:25.854Z,8.96
2023-04-16T03:40:55.642Z,9.08
2023-04-16T03:43:23.178Z,9.10
2023-04-16T03:45:50.996Z,9.09
2023-04-16T03:48:21.408Z,9.10
2023-04-16T03:50:48.911Z,8.85
2023-04-16T03:53:18.180Z,9.04
2023-04-16T03:55:53.606Z,8.96
2023-04-16T03:58:22.102Z,9.00
2023-04-16T04:00:49.485Z,9.18
2023-04-16T04:03:18.609Z,9.12
2023-04-16T04:05:48.561Z,9.04
2023-04-16T04:08:21.053Z,8.91
2023-04-16T04:10:48.714Z,8.70
2023-04-16T04:13:16.530Z,8.83
2023-04-16T04:15:44.517Z,8.89
2023-04-16T04:18:11.882Z,8.93
2023-04-16T04:20:41.104Z,8.96
2023-04-16T04:23:09.155Z,8.67
2023-04-16T04:25:36.949Z,8.66
2023-04-16T04:28:04.555Z,8.36
2023-04-16T04:30:32.050Z,8.23
2023-04-16T04:32:59.470Z,8.41
2023-04-16T04:35:26.993Z,8.39
2023-04-16T04:37:54.468Z,8.60
2023-04-16T04:40:21.856Z,8.46
2023-04-16T04:42:49.321Z,8.68
2023-04-16T04:45:16.983Z,8.62
2023-04-16T04:47:44.471Z,8.70
2023-04-16T04:50:11.907Z,8.48
2023-04-16T04:52:39.452Z,8.29
2023-04-16T04:55:08.195Z,8.30
2023-04-16T04:57:36.002Z,8.41
2023-04-16T05:00:05.232Z,8.23
2023-04-16T05:02:40.889Z,8.13
2023-04-16T05:05:08.912Z,8.36
2023-04-16T05:07:36.311Z,8.52
2023-04-16T05:10:03.943Z,8.63
2023-04-16T05:12:31.505Z,8.51
2023-04-16T05:14:58.909Z,8.65
2023-04-16T05:17:26.349Z,8.63
2023-04-16T05:19:53.787Z,8.41
2023-04-16T05:22:21.396Z,8.45
2023-04-16T05:24:48.736Z,8.64
2023-04-16T05:27:16.246Z,8.66
2023-04-16T05:29:43.619Z,8.68
2023-04-16T05:32:11.130Z,8.77
2023-04-16T05:34:38.530Z,8.77
2023-04-16T05:37:05.882Z,8.77
2023-04-16T05:39:33.247Z,8.69
2023-04-16T05:42:00.667Z,8.59
2023-04-16T05:44:28.138Z,8.56
2023-04-16T05:46:55.540Z,8.56
2023-04-16T05:49:22.833Z,8.73
2023-04-16T05:51:51.000Z,8.83
2023-04-16T05:54:18.538Z,8.80
2023-04-16T05:56:45.948Z,8.84
2023-04-16T05:59:13.212Z,9.09
2023-04-16T06:01:41.194Z,9.23
2023-04-16T06:04:12.933Z,9.28
2023-04-16T06:06:40.403Z,9.35
2023-04-16T06:09:07.970Z,9.46
2023-04-16T06:11:36.397Z,9.63
2023-04-16T06:14:03.962Z,9.70
2023-04-16T06:16:31.420Z,9.90
2023-04-16T06:18:59.200Z,9.98
2023-04-16T06:21:26.804Z,9.96
2023-04-16T06:23:55.165Z,10.08
2023-04-16T06:26:22.593Z,10.14
2023-04-16T06:28:50.512Z,10.21
2023-04-16T06:31:18.052Z,10.27
2023-04-16T06:33:45.659Z,10.28
2023-04-16T06:36:13.070Z,10.35
2023-04-16T06:38:40.677Z,10.50
2023-04-16T06:41:08.198Z,10.70
2023-04-16T06:43:35.716Z,11.06
2023-04-16T06:46:03.151Z,11.48
2023-04-16T06:48:30.611Z,11.46
2023-04-16T06:50:58.089Z,11.32
2023-04-16T06:53:25.591Z,11.46
2023-04-16T06:55:53.106Z,11.59
2023-04-16T06:58:20.714Z,11.84
2023-04-16T07:00:48.242Z,12.70
2023-04-16T07:03:17.073Z,12.82
2023-04-16T07:05:44.587Z,12.37
2023-04-16T07:08:11.981Z,12.11
2023-04-16T07:10:39.359Z,11.95
2023-04-16T07:13:06.772Z,12.13
2023-04-16T07:15:34.182Z,12.27
2023-04-16T07:18:01.624Z,12.45
2023-04-16T07:20:29.119Z,12.49
2023-04-16T07:22:56.787Z,12.50
2023-04-16T07:25:24.203Z,12.79
2023-04-16T07:27:51.940Z,12.64
2023-04-16T07:30:19.498Z,12.94
2023-04-16T07:32:46.983Z,12.87
2023-04-16T07:35:14.439Z,12.99
2023-04-16T07:37:41.858Z,13.11
2023-04-16T07:40:09.725Z,13.53
2023-04-16T07:42:37.118Z,13.29
2023-04-16T07:45:04.839Z,13.11
2023-04-16T07:47:32.258Z,13.18
2023-04-16T07:49:59.623Z,13.39
2023-04-16T07:52:26.974Z,13.75
2023-04-16T07:54:54.443Z,14.47
2023-04-16T07:57:21.838Z,14.36
2023-04-16T07:59:49.202Z,14.52
2023-04-16T08:02:16.999Z,14.80
2023-04-16T08:04:44.897Z,15.10
2023-04-16T08:07:12.572Z,14.98
2023-04-16T08:09:53.973Z,15.41
2023-04-16T08:12:24.480Z,15.84
2023-04-16T08:14:53.515Z,15.98
2023-04-16T08:17:20.895Z,16.07
2023-04-16T08:19:48.668Z,16.23
2023-04-16T08:22:19.267Z,16.08
2023-04-16T08:24:48.978Z,15.99
2023-04-16T08:27:19.674Z,16.16
2023-04-16T08:29:48.308Z,16.25
2023-04-16T08:32:15.690Z,16.20
2023-04-16T08:34:43.227Z,15.74
2023-04-16T08:37:10.697Z,15.98
2023-04-16T08:39:38.068Z,16.06
2023-04-16T08:42:06.233Z,16.19
2023-04-16T08:44:42.361Z,16.42
2023-04-16T08:47:12.629Z,16.35
2023-04-16T08:49:46.102Z,16.56
2023-04-16T08:52:20.272Z,16.98
2023-04-16T08:55:14.714Z,16.69
2023-04-16T08:57:48.617Z,16.24
2023-04-16T09:00:16.928Z,17.02
2023-04-16T09:02:45.018Z,17.64
2023-04-16T09:05:21.547Z,17.41
2023-04-16T09:07:49.189Z,17.26
2023-04-16T09:10:17.592Z,17.93
2023-04-16T09:12:45.397Z,18.95
2023-04-16T09:15:14.140Z,18.97
2023-04-16T09:17:42.017Z,18.58
2023-04-16T09:20:11.161Z,18.79
2023-04-16T09:22:42.399Z,18.62
2023-04-16T09:25:11.360Z,18.33
2023-04-16T09:27:39.468Z,19.40
2023-04-16T09:30:23.278Z,18.54
2023-04-16T09:32:52.359Z,18.10
2023-04-16T09:35:20.409Z,17.78
2023-04-16T09:37:56.948Z,17.62
2023-04-16T09:40:26.680Z,17.69
2023-04-16T09:42:58.191Z,17.64
2023-04-16T09:45:25.628Z,17.59
2023-04-16T09:47:53.026Z,17.45
2023-04-16T09:50:20.886Z,17.48
2023-04-16T09:52:51.306Z,17.23
2023-04-16T09:55:27.580Z,17.41
2023-04-16T09:58:02.225Z,17.43
2023-04-16T10:00:31.419Z,17.37
2023-04-16T10:03:07.215Z,17.44
2023-04-16T10:05:35.033Z,17.34
2023-04-16T10:08:02.511Z,17.28
2023-04-16T10:10:30.632Z,17.32
2023-04-16T10:12:58.449Z,17.11
2023-04-16T10:15:25.902Z,17.25
2023-04-16T10:17:54.069Z,17.40
2023-04-16T10:20:23.907Z,17.39
2023-04-16T10:22:51.910Z,17.36
2023-04-16T10:25:19.695Z,17.39
2023-04-16T10:27:48.047Z,17.34
2023-04-16T10:30:16.718Z,17.56
2023-04-16T10:32:45.165Z,17.34
2023-04-16T10:35:19.079Z,17.36
2023-04-16T10:37:47.708Z,17.37
2023-04-16T10:40:26.251Z,17.43
2023-04-16T10:42:58.034Z,17.55
2023-04-16T10:45:29.539Z,17.14
2023-04-16T10:47:57.963Z,17.21
2023-04-16T10:50:25.517Z,17.06
2023-04-16T10:53:20.620Z,17.23
2023-04-16T10:56:03.303Z,17.45
2023-04-16T10:58:31.943Z,17.53
2023-04-16T11:01:00.495Z,17.51
2023-04-16T11:03:32.303Z,17.54
2023-04-16T11:06:27.022Z,17.60
2023-04-16T11:09:08.197Z,17.65
2023-04-16T11:11:38.699Z,17.76
2023-04-16T11:14:08.291Z,17.45
2023-04-16T11:16:35.881Z,17.55
2023-04-16T11:19:03.233Z,17.53
2023-04-16T11:21:31.838Z,17.65
2023-04-16T11:23:59.197Z,17.58
2023-04-16T11:26:28.804Z,17.49
2023-04-16T11:28:57.174Z,17.60
2023-04-16T11:31:24.864Z,17.43
2023-04-16T11:33:52.324Z,17.45
2023-04-16T11:36:19.685Z,17.39
2023-04-16T11:38:47.371Z,17.61
2023-04-16T11:41:21.924Z,17.79
2023-04-16T11:43:49.289Z,17.59
2023-04-16T11:46:26.284Z,17.77
2023-04-16T11:48:57.942Z,17.95
2023-04-16T11:51:25.278Z,17.82
2023-04-16T11:53:54.111Z,17.91
2023-04-16T11:56:26.680Z,17.87
2023-04-16T11:59:10.013Z,17.91
2023-04-16T12:01:39.443Z,17.93
2023-04-16T12:04:11.955Z,17.97
2023-04-16T12:06:39.600Z,17.90
2023-04-16T12:09:27.131Z,17.74
2023-04-16T12:11:54.571Z,17.83
2023-04-16T12:14:22.997Z,18.09
2023-04-16T12:16:50.505Z,17.92
2023-04-16T12:19:18.379Z,18.01
2023-04-16T12:21:48.134Z,17.92
2023-04-16T12:24:24.230Z,17.89
2023-04-16T12:26:57.608Z,17.72
2023-04-16T12:29:27.619Z,17.84
2023-04-16T12:31:55.176Z,17.93
2023-04-16T12:34:29.021Z,18.08
2023-04-16T12:37:10.613Z,17.79
2023-04-16T12:39:38.080Z,17.54
2023-04-16T12:42:09.885Z,17.40
2023-04-16T12:44:37.516Z,17.35
2023-04-16T12:47:05.677Z,17.40
2023-04-16T12:49:33.570Z,17.27
2023-04-16T12:52:01.157Z,17.48
2023-04-16T12:54:31.112Z,17.57
2023-04-16T12:56:58.624Z,18.06
2023-04-16T12:59:26.127Z,18.01
2023-04-16T13:01:53.651Z,18.15
2023-04-16T13:04:22.786Z,18.26
2023-04-16T13:06:52.539Z,18.29
2023-04-16T13:09:20.302Z,17.96
2023-04-16T13:11:47.935Z,18.00
2023-04-16T13:14:15.733Z,17.70
2023-04-16T13:16:43.124Z,17.77
2023-04-16T13:19:10.895Z,17.90
2023-04-16T13:21:38.467Z,18.17
2023-04-16T13:24:09.460Z,18.25
2023-04-16T13:26:36.962Z,18.24
2023-04-16T13:29:04.385Z,18.34
2023-04-16T13:31:31.977Z,18.44
2023-04-16T13:33:59.553Z,18.49
2023-04-16T13:36:32.189Z,18.39
2023-04-16T13:38:59.947Z,18.61
2023-04-16T13:41:27.579Z,18.60
2023-04-16T13:43:55.038Z,18.62
2023-04-16T13:46:22.581Z,18.52
2023-04-16T13:49:00.024Z,18.33
2023-04-16T13:51:27.884Z,18.44
2023-04-16T13:53:59.331Z,18.64
2023-04-16T13:56:26.631Z,18.69
2023-04-16T13:58:54.008Z,18.64
2023-04-16T14:01:21.849Z,18.51
2023-04-16T14:03:50.713Z,18.51
2023-04-16T14:06:18.247Z,18.41
2023-04-16T14:08:46.266Z,18.34
2023-04-16T14:11:13.646Z,18.37
2023-04-16T14:13:41.833Z,18.39
2023-04-16T14:16:09.281Z,18.21
2023-04-16T14:18:41.053Z,17.97
2023-04-16T14:21:09.064Z,18.03
2023-04-16T14:23:37.044Z,18.00
2023-04-16T14:26:04.473Z,18.05
2023-04-16T14:28:32.091Z,17.98
2023-04-16T14:30:59.536Z,17.95
2023-04-16T14:33:27.268Z,17.92
2023-04-16T14:35:54.957Z,17.95
2023-04-16T14:38:22.406Z,17.90
2023-04-16T14:40:49.874Z,17.89
2023-04-16T14:43:17.365Z,17.89
2023-04-16T14:45:44.771Z,17.84
2023-04-16T14:48:12.353Z,17.88
2023-04-16T14:50:43.622Z,17.84
2023-04-16T14:53:12.084Z,17.66
2023-04-16T14:55:39.626Z,17.73
2023-04-16T14:58:09.470Z,17.63
2023-04-16T15:00:37.044Z,17.66
2023-04-16T15:03:05.096Z,17.52
2023-04-16T15:05:32.609Z,17.65
2023-04-16T15:08:00.685Z,17.63
2023-04-16T15:10:28.162Z,17.50
2023-04-16T15:12:55.706Z,17.62
2023-04-16T15:15:23.178Z,17.65
2023-04-16T15:17:51.927Z,17.68
2023-04-16T15:20:19.538Z,17.58
2023-04-16T15:22:47.022Z,17.64
2023-04-16T15:25:14.579Z,17.52
2023-04-16T15:27:42.216Z,17.49
2023-04-16T15:30:10.045Z,17.53
2023-04-16T15:32:40.497Z,17.54
2023-04-16T15:35:11.177Z,17.56
2023-04-16T15:37:39.065Z,17.54
2023-04-16T15:40:08.656Z,17.53
2023-04-16T15:42:36.226Z,17.39
2023-04-16T15:45:03.916Z,17.43
2023-04-16T15:47:31.659Z,17.43
2023-04-16T15:49:59.104Z,17.37
2023-04-16T15:52:26.554Z,17.33
2023-04-16T15:54:54.844Z,17.25
2023-04-16T15:57:22.294Z,17.23
2023-04-16T16:00:05.397Z,17.15
2023-04-16T16:02:34.261Z,17.26
2023-04-16T16:05:01.950Z,17.25
2023-04-16T16:07:29.316Z,17.20
2023-04-16T16:09:58.340Z,17.20
2023-04-16T16:12:25.827Z,17.14
2023-04-16T16:14:53.427Z,17.17
2023-04-16T16:17:20.917Z,17.09
2023-04-16T16:19:49.347Z,17.08
2023-04-16T16:22:20.582Z,16.90
2023-04-16T16:24:54.058Z,16.80
2023-04-16T16:27:21.705Z,16.73
2023-04-16T16:29:49.102Z,16.71
2023-04-16T16:32:16.785Z,16.69
2023-04-16T16:34:44.291Z,16.69
2023-04-16T16:37:11.785Z,16.57
2023-04-16T16:39:39.254Z,16.57
2023-04-16T16:42:08.639Z,16.57
2023-04-16T16:44:36.960Z,16.54
2023-04-16T16:47:04.622Z,16.59
2023-04-16T16:49:32.178Z,16.64
2023-04-16T16:51:59.649Z,16.71
2023-04-16T16:54:27.050Z,16.72
2023-04-16T16:56:54.608Z,16.63
2023-04-16T16:59:22.034Z,16.51
2023-04-16T17:01:49.566Z,16.56
2023-04-16T17:04:42.265Z,16.62
2023-04-16T17:07:09.687Z,16.50
2023-04-16T17:09:38.592Z,16.42
2023-04-16T17:12:06.396Z,16.35
2023-04-16T17:14:33.905Z,16.21
2023-04-16T17:17:01.342Z,16.18
2023-04-16T17:19:28.738Z,16.07
2023-04-16T17:21:56.023Z,15.90
2023-04-16T17:24:23.329Z,15.89
2023-04-16T17:26:50.766Z,15.80
2023-04-16T17:29:18.199Z,15.56
2023-04-16T17:31:45.565Z,15.46
2023-04-16T17:34:13.165Z,15.22
2023-04-16T17:36:40.952Z,15.15
2023-04-16T17:39:08.285Z,15.07
2023-04-16T17:41:35.686Z,15.13
2023-04-16T17:44:02.957Z,15.00
2023-04-16T17:46:30.256Z,15.00
2023-04-16T17:48:57.580Z,15.03
2023-04-16T17:51:25.079Z,14.97
2023-04-16T17:53:53.778Z,14.93
2023-04-16T17:56:21.883Z,14.87
2023-04-16T17:58:49.157Z,14.90
2023-04-16T18:01:16.466Z,14.94
2023-04-16T18:03:44.499Z,14.95
2023-04-16T18:06:12.088Z,14.94
2023-04-16T18:08:39.524Z,14.87
2023-04-16T18:11:08.462Z,14.76
2023-04-16T18:13:36.424Z,14.82
2023-04-16T18:16:03.998Z,14.63
2023-04-16T18:18:31.611Z,14.68
2023-04-16T18:20:59.147Z,14.53
2023-04-16T18:23:27.338Z,14.56
2023-04-16T18:25:55.062Z,14.61
2023-04-16T18:28:22.678Z,14.54
2023-04-16T18:30:50.641Z,14.51
2023-04-16T18:33:44.464Z,14.58
2023-04-16T18:36:06.736Z,14.46
2023-04-16T18:38:34.627Z,14.50
2023-04-16T18:41:02.297Z,14.39
2023-04-16T18:43:29.843Z,14.37
2023-04-16T18:45:57.667Z,14.24
2023-04-16T18:48:25.569Z,14.30
2023-04-16T18:50:52.975Z,14.28
2023-04-16T18:53:21.299Z,14.25
2023-04-16T18:55:53.685Z,14.33
2023-04-16T18:58:21.948Z,14.36
2023-04-16T19:00:58.696Z,14.21
2023-04-16T19:03:27.568Z,14.19
2023-04-16T19:05:55.228Z,14.21
2023-04-16T19:08:22.816Z,14.17
2023-04-16T19:10:51.241Z,14.07
2023-04-16T19:13:18.763Z,14.13
2023-04-16T19:15:46.475Z,13.99
2023-04-16T19:18:13.916Z,14.01
2023-04-16T19:20:41.332Z,13.95
2023-04-16T19:23:09.241Z,13.96
2023-04-16T19:25:36.622Z,13.94
2023-04-16T19:28:04.404Z,13.97
2023-04-16T19:30:31.874Z,13.91
2023-04-16T19:32:59.527Z,13.71
2023-04-16T19:35:27.192Z,13.60
2023-04-16T19:37:56.274Z,13.59
2023-04-16T19:40:23.631Z,13.54
2023-04-16T19:42:51.217Z,13.55
2023-04-16T19:45:18.787Z,13.54
2023-04-16T19:47:48.777Z,13.56
2023-04-16T19:50:16.286Z,13.54
2023-04-16T19:52:43.684Z,13.53
2023-04-16T19:55:11.195Z,13.54
2023-04-16T19:57:38.788Z,13.50
2023-04-16T20:00:11.265Z,13.43
2023-04-16T20:02:39.709Z,13.39
2023-04-16T20:05:15.529Z,13.35
2023-04-16T20:07:57.571Z,13.32
2023-04-16T20:10:30.173Z,13.30
2023-04-16T20:13:18.756Z,13.08
2023-04-16T20:15:58.239Z,12.99
2023-04-16T20:18:35.502Z,12.96
2023-04-16T20:21:23.540Z,12.80
2023-04-16T20:23:55.773Z,12.74
2023-04-16T20:26:36.956Z,12.79
2023-04-16T20:29:20.959Z,12.76
2023-04-16T20:31:52.646Z,12.54
2023-04-16T20:34:41.127Z,12.63
2023-04-16T20:37:19.812Z,12.49
2023-04-16T20:39:57.366Z,12.57
2023-04-16T20:42:43.758Z,12.49
2023-04-16T20:45:24.833Z,12.51
2023-04-16T20:47:59.678Z,12.57
2023-04-16T20:50:33.005Z,12.41
2023-04-16T20:53:13.718Z,12.45
2023-04-16T20:55:44.138Z,12.25
2023-04-16T20:58:24.942Z,12.45
2023-04-16T21:00:57.212Z,12.36
2023-04-16T21:03:31.578Z,12.44
2023-04-16T21:06:11.527Z,12.37
2023-04-16T21:08:39.448Z,12.50
2023-04-16T21:11:14.057Z,12.40
2023-04-16T21:13:48.617Z,12.17
2023-04-16T21:16:31.166Z,12.11
2023-04-16T21:19:09.052Z,12.14
2023-04-16T21:21:40.355Z,12.14
2023-04-16T21:24:09.740Z,12.17
2023-04-16T21:26:50.060Z,12.04
2023-04-16T21:29:24.447Z,11.95
2023-04-16T21:31:56.509Z,11.93
2023-04-16T21:34:30.297Z,11.81
2023-04-16T21:37:03.347Z,11.66
2023-04-16T21:39:33.616Z,11.82
2023-04-16T21:42:09.364Z,11.75
2023-04-16T21:44:48.342Z,11.67
2023-04-16T21:47:23.565Z,11.49
2023-04-16T21:50:03.476Z,11.46
2023-04-16T21:52:41.389Z,11.41
2023-04-16T21:55:18.308Z,11.31
2023-04-16T21:58:08.054Z,11.58
2023-04-16T22:00:47.144Z,11.21
2023-04-16T22:03:33.425Z,11.09
2023-04-16T22:06:09.188Z,11.18
2023-04-16T22:08:47.988Z,11.09
2023-04-16T22:11:25.147Z,10.84
2023-04-16T22:14:03.529Z,11.02
2023-04-16T22:16:36.594Z,11.06
2023-04-16T22:19:15.093Z,11.04
2023-04-16T22:21:49.922Z,10.89
2023-04-16T22:24:30.286Z,11.05
2023-04-16T22:27:05.868Z,10.94
2023-04-16T22:29:48.095Z,11.01
2023-04-16T22:32:31.538Z,10.87
2023-04-16T22:35:03.649Z,10.89
2023-04-16T22:37:52.315Z,10.80
2023-04-16T22:40:24.332Z,11.00
2023-04-16T22:42:59.028Z,10.85
2023-04-16T22:45:29.421Z,10.83
2023-04-16T22:47:56.962Z,10.79
2023-04-16T22:50:24.338Z,10.69
2023-04-16T22:52:51.752Z,10.79
2023-04-16T22:55:19.277Z,10.70
2023-04-16T22:57:47.607Z,10.47
2023-04-16T23:00:18.011Z,10.41
2023-04-16T23:02:45.725Z,10.45
2023-04-16T23:05:13.270Z,10.60
2023-04-16T23:07:40.598Z,10.60
2023-04-16T23:10:08.756Z,10.63
2023-04-16T23:12:39.272Z,10.53
2023-04-16T23:15:07.130Z,10.58
2023-04-16T23:17:35.285Z,10.80
2023-04-16T23:20:05.320Z,10.74
2023-04-16T23:22:32.786Z,10.79
2023-04-16T23:25:00.264Z,10.64
2023-04-16T23:27:28.152Z,10.58
2023-04-16T23:29:55.762Z,10.69
2023-04-16T23:32:23.158Z,10.49
2023-04-16T23:34:50.581Z,10.39
2023-04-16T23:37:18.109Z,10.34
2023-04-16T23:39:45.566Z,10.49
2023-04-16T23:42:13.106Z,10.54
2023-04-16T23:44:40.579Z,10.50
2023-04-16T23:47:08.239Z,10.50
2023-04-16T23:49:35.725Z,10.26
2023-04-16T23:52:03.305Z,10.09
2023-04-16T23:54:30.676Z,10.23
2023-04-16T23:56:58.051Z,10.17
2023-04-16T23:59:25.497Z,10.29
